EPMO

Modlin Airport

Warsaw, Poland
METAR EPMO 151900Z 28005KT 3000 BR BKN006 01/01 Q0997
Observed Flight Rules
Dec-15 @ 19:00 UTC (35 minutes ago) Instrument Flight Rules
Wind Visibility Clouds Conditions
280° at 5 knots 2,993 meters
  • Broken at 600' AGL
  • Mist
Temperatures Readings
Current 1°C / 34°F
Dewpoint 1°C / 34°F
Humidity 100%
Altimeter 29.44" Hg
Pressure 997 hPa
Elevation 104
METAR EPMO 151900Z 28005KT 3000 BR BKN006 01/01 Q0997
Observed Flight Rules
Dec-15 @ 19:00 UTC
(35 minutes ago)
IFR
Wind Visibility
280° at 5 knots 2,993 meters
Clouds
  • Broken at 600' AGL
Conditions
  • Mist
Temperature Dewpoint
1°C / 34°F 1°C / 34°F
Humidity Altimeter Pressure
100% 29.44" Hg 997 hPa